createdAt,value
2023-04-17T13:51:52.730Z,8.80
2023-04-17T13:52:52.649Z,9.20
2023-04-17T13:53:52.642Z,9.20
2023-04-17T13:54:52.610Z,8.90
2023-04-17T13:55:52.610Z,9.30
2023-04-17T13:56:52.596Z,9.30
2023-04-17T13:57:52.578Z,8.80
2023-04-17T13:58:52.589Z,8.70
2023-04-17T13:59:52.606Z,9.30
2023-04-17T14:00:52.559Z,8.50
2023-04-17T14:01:52.664Z,8.60
2023-04-17T14:02:52.919Z,8.40
2023-04-17T14:03:52.871Z,8.80
2023-04-17T14:04:52.553Z,8.60
2023-04-17T14:05:52.489Z,8.80
2023-04-17T14:06:52.488Z,8.20
2023-04-17T14:07:52.511Z,8.10
2023-04-17T14:08:52.474Z,8.40
2023-04-17T14:09:52.461Z,7.30
2023-04-17T14:10:52.432Z,8.10
2023-04-17T14:11:52.431Z,7.50
2023-04-17T14:12:52.413Z,7.80
2023-04-17T14:13:52.414Z,7.60
2023-04-17T14:14:52.401Z,7.40
2023-04-17T14:15:52.419Z,6.70
2023-04-17T14:16:52.375Z,7.10
2023-04-17T14:17:52.389Z,7.50
2023-04-17T14:18:52.369Z,7.50
2023-04-17T14:19:52.338Z,7.50
2023-04-17T14:20:52.328Z,7.80
2023-04-17T14:21:52.316Z,7.30
2023-04-17T14:22:52.316Z,6.80
2023-04-17T14:23:52.342Z,6.90
2023-04-17T14:24:52.280Z,6.60
2023-04-17T14:25:52.285Z,7.30
2023-04-17T14:26:52.253Z,7.20
2023-04-17T14:27:52.259Z,6.60
2023-04-17T14:28:52.281Z,7.10
2023-04-17T14:29:52.233Z,7.30
2023-04-17T14:30:52.216Z,7.50
2023-04-17T14:31:52.256Z,7.10
2023-04-17T14:32:52.238Z,6.70
2023-04-17T14:33:52.200Z,6.80
2023-04-17T14:34:52.177Z,7.00
2023-04-17T14:35:52.152Z,6.90
2023-04-17T14:36:52.147Z,6.80
2023-04-17T14:37:52.136Z,6.90
2023-04-17T14:38:52.138Z,7.50
2023-04-17T14:39:52.154Z,7.40
2023-04-17T14:40:52.100Z,7.30
2023-04-17T14:41:52.140Z,7.30
2023-04-17T14:42:54.474Z,7.30
2023-04-17T14:43:52.093Z,7.70
2023-04-17T14:44:52.067Z,8.10
2023-04-17T14:45:52.044Z,7.90
2023-04-17T14:46:52.086Z,7.50
2023-04-17T14:47:52.084Z,7.50
2023-04-17T14:48:55.712Z,7.50
2023-04-17T14:49:51.999Z,7.00
2023-04-17T14:50:51.993Z,6.80
2023-04-17T14:51:51.972Z,6.40
2023-04-17T14:52:51.983Z,6.00
2023-04-17T14:53:52.987Z,6.00
2023-04-17T14:54:51.943Z,5.90
2023-04-17T14:55:51.961Z,6.00
2023-04-17T14:56:51.927Z,6.00
2023-04-17T14:57:51.966Z,5.80
2023-04-17T14:58:51.951Z,5.70
2023-04-17T14:59:51.892Z,5.50
2023-04-17T15:00:51.902Z,6.00
2023-04-17T15:01:51.972Z,5.60
2023-04-17T15:02:52.026Z,5.20
2023-04-17T15:03:52.229Z,5.30
2023-04-17T15:04:51.834Z,5.20
2023-04-17T15:05:51.825Z,5.10
2023-04-17T15:06:51.814Z,4.90
2023-04-17T15:07:51.805Z,5.20
2023-04-17T15:08:51.824Z,4.70
2023-04-17T15:09:51.784Z,5.20
2023-04-17T15:10:51.843Z,5.00
2023-04-17T15:11:51.769Z,5.20
2023-04-17T15:12:51.747Z,5.20
2023-04-17T15:13:51.777Z,5.20
2023-04-17T15:14:51.722Z,5.40
2023-04-17T15:15:51.715Z,5.50
2023-04-17T15:16:51.732Z,4.90
2023-04-17T15:17:51.789Z,5.00
2023-04-17T15:18:51.710Z,5.30
2023-04-17T15:19:51.666Z,5.20
2023-04-17T15:20:51.655Z,5.10
2023-04-17T15:21:51.651Z,5.00
2023-04-17T15:22:51.635Z,5.10
2023-04-17T15:23:51.639Z,4.90
2023-04-17T15:24:51.627Z,5.30
2023-04-17T15:25:51.605Z,4.80
2023-04-17T15:26:51.595Z,5.30
2023-04-17T15:27:51.599Z,5.50
2023-04-17T15:28:51.584Z,5.40
2023-04-17T15:29:51.563Z,5.90
2023-04-17T15:30:51.561Z,5.20
2023-04-17T15:31:51.569Z,5.10
2023-04-17T15:32:51.538Z,5.20
2023-04-17T15:33:51.765Z,5.20
2023-04-17T15:34:51.507Z,5.60
2023-04-17T15:35:51.492Z,5.50
2023-04-17T15:36:51.513Z,5.20
2023-04-17T15:37:51.484Z,5.60
2023-04-17T15:38:51.503Z,5.60
2023-04-17T15:39:51.452Z,5.20
2023-04-17T15:40:51.452Z,5.50
2023-04-17T15:41:51.421Z,5.70
2023-04-17T15:42:51.423Z,6.00
2023-04-17T15:43:51.449Z,5.60
2023-04-17T15:44:51.400Z,5.30
2023-04-17T15:45:51.436Z,5.50
2023-04-17T15:46:51.368Z,5.40
2023-04-17T15:47:51.377Z,5.50
2023-04-17T15:49:04.866Z,5.10
2023-04-17T15:49:52.337Z,5.60
2023-04-17T15:50:51.322Z,5.70
2023-04-17T15:51:51.319Z,5.30
2023-04-17T15:52:51.309Z,5.40
2023-04-17T15:53:51.308Z,5.30
2023-04-17T15:54:51.283Z,5.60
2023-04-17T15:55:51.269Z,5.90
2023-04-17T15:56:51.260Z,5.50
2023-04-17T15:57:51.249Z,5.30
2023-04-17T15:58:51.252Z,5.60
2023-04-17T15:59:51.244Z,6.10
2023-04-17T16:00:51.210Z,5.40
2023-04-17T16:01:51.258Z,6.00
2023-04-17T16:02:51.330Z,5.70
2023-04-17T16:03:51.475Z,6.00
2023-04-17T16:04:51.177Z,6.10
2023-04-17T16:05:52.891Z,5.70
2023-04-17T16:06:51.142Z,5.60
2023-04-17T16:07:51.130Z,5.60
2023-04-17T16:08:51.134Z,6.20
2023-04-17T16:09:51.115Z,6.20
2023-04-17T16:10:51.121Z,6.10
2023-04-17T16:11:51.084Z,6.50
2023-04-17T16:12:51.082Z,6.30
2023-04-17T16:13:51.079Z,5.80
2023-04-17T16:14:51.063Z,5.70
2023-04-17T16:15:51.084Z,6.00
2023-04-17T16:16:51.042Z,5.80
2023-04-17T16:17:51.089Z,5.70
2023-04-17T16:18:51.022Z,5.80
2023-04-17T16:19:51.025Z,5.90
2023-04-17T16:20:50.987Z,5.70
2023-04-17T16:21:50.972Z,5.70
2023-04-17T16:22:50.963Z,5.80
2023-04-17T16:23:50.980Z,6.30
2023-04-17T16:24:50.965Z,6.20
2023-04-17T16:25:50.934Z,6.10
2023-04-17T16:26:50.918Z,6.00
2023-04-17T16:27:50.912Z,6.10
2023-04-17T16:28:50.890Z,6.00
2023-04-17T16:29:50.992Z,6.00
2023-04-17T16:30:50.877Z,6.70
2023-04-17T16:31:50.967Z,6.30
2023-04-17T16:32:50.882Z,6.10
2023-04-17T16:33:50.857Z,5.70
2023-04-17T16:34:50.853Z,6.00
2023-04-17T16:35:50.820Z,6.30
2023-04-17T16:36:50.810Z,5.70
2023-04-17T16:37:50.805Z,6.00
2023-04-17T16:38:50.777Z,6.30
2023-04-17T16:39:50.827Z,5.90
2023-04-17T16:40:50.808Z,6.10
2023-04-17T16:41:50.748Z,5.70
2023-04-17T16:42:50.757Z,6.20
2023-04-17T16:43:50.728Z,5.60
2023-04-17T16:44:50.749Z,5.70
2023-04-17T16:45:50.702Z,6.10
2023-04-17T16:47:09.981Z,5.50
2023-04-17T16:47:51.916Z,5.30
2023-04-17T16:48:50.816Z,6.00
2023-04-17T16:49:50.693Z,5.60
2023-04-17T16:50:50.652Z,5.50
2023-04-17T16:51:50.642Z,5.40
2023-04-17T16:52:50.654Z,5.80
2023-04-17T16:53:50.621Z,5.60
2023-04-17T16:54:50.629Z,5.50
2023-04-17T16:55:50.601Z,5.40
2023-04-17T16:56:50.586Z,6.10
2023-04-17T16:57:50.569Z,5.60
2023-04-17T16:58:50.562Z,5.90
2023-04-17T16:59:50.574Z,5.20
2023-04-17T17:00:50.609Z,5.90
2023-04-17T17:01:50.536Z,6.00
2023-04-17T17:02:50.654Z,5.80
2023-04-17T17:03:50.549Z,6.20
2023-04-17T17:04:50.520Z,5.40
2023-04-17T17:05:50.493Z,5.90
2023-04-17T17:06:50.471Z,5.40
2023-04-17T17:07:50.468Z,5.90
2023-04-17T17:08:50.443Z,5.50
2023-04-17T17:09:50.451Z,5.80
2023-04-17T17:10:50.422Z,5.90
2023-04-17T17:11:50.433Z,5.60
2023-04-17T17:12:50.404Z,5.60
2023-04-17T17:13:50.389Z,5.80
2023-04-17T17:14:50.395Z,5.90
2023-04-17T17:15:50.368Z,5.70
2023-04-17T17:16:50.408Z,6.10
2023-04-17T17:17:50.385Z,5.60
2023-04-17T17:18:50.339Z,5.50
2023-04-17T17:19:50.453Z,5.80
2023-04-17T17:20:50.313Z,5.80
2023-04-17T17:21:50.299Z,6.30
2023-04-17T17:22:50.287Z,5.60
2023-04-17T17:23:50.284Z,5.90
2023-04-17T17:24:50.314Z,5.60
2023-04-17T17:25:50.261Z,6.30
2023-04-17T17:26:50.248Z,5.70
2023-04-17T17:27:50.231Z,5.90
2023-04-17T17:28:50.226Z,6.00
2023-04-17T17:29:50.226Z,5.60
2023-04-17T17:30:50.219Z,5.90
2023-04-17T17:31:50.240Z,5.90
2023-04-17T17:32:50.191Z,5.80
2023-04-17T17:33:50.390Z,6.00
2023-04-17T17:34:50.186Z,5.50
2023-04-17T17:35:50.159Z,6.30
2023-04-17T17:36:50.138Z,5.60
2023-04-17T17:37:50.124Z,5.60
2023-04-17T17:38:50.113Z,5.30
2023-04-17T17:39:50.118Z,5.70
2023-04-17T17:40:50.089Z,5.60
2023-04-17T17:41:50.088Z,5.60
2023-04-17T17:42:50.067Z,5.30
2023-04-17T17:43:50.055Z,5.70
2023-04-17T17:44:50.269Z,6.20
2023-04-17T17:45:50.115Z,5.20
2023-04-17T17:46:50.025Z,5.10
2023-04-17T17:47:50.066Z,5.10
2023-04-17T17:48:50.001Z,5.00
2023-04-17T17:49:50.032Z,5.30
2023-04-17T17:50:49.980Z,5.20
2023-04-17T17:51:49.984Z,5.10
2023-04-17T17:52:49.970Z,5.20
2023-04-17T17:53:49.948Z,4.80
2023-04-17T17:54:49.979Z,4.50
2023-04-17T17:55:49.923Z,4.80
2023-04-17T17:56:49.920Z,4.70
2023-04-17T17:57:49.964Z,5.10
2023-04-17T17:58:49.897Z,4.70
2023-04-17T17:59:49.930Z,5.10
2023-04-17T18:00:49.872Z,5.60
2023-04-17T18:01:49.928Z,5.00
2023-04-17T18:02:49.959Z,4.80
2023-04-17T18:03:50.220Z,5.10
2023-04-17T18:04:49.974Z,4.80
2023-04-17T18:05:49.844Z,5.30
2023-04-17T18:06:49.806Z,4.70
2023-04-17T18:07:49.832Z,5.20
2023-04-17T18:08:49.776Z,5.10
2023-04-17T18:09:50.876Z,4.90
2023-04-17T18:10:49.753Z,4.80
2023-04-17T18:11:49.757Z,5.00
2023-04-17T18:12:49.753Z,4.90
2023-04-17T18:13:49.731Z,4.90
2023-04-17T18:14:49.725Z,4.60
2023-04-17T18:15:49.738Z,4.60
2023-04-17T18:16:49.710Z,4.80
2023-04-17T18:17:49.729Z,4.80
2023-04-17T18:18:49.667Z,4.70
2023-04-17T18:19:49.676Z,5.30
2023-04-17T18:20:49.649Z,5.30
2023-04-17T18:21:49.638Z,4.50
2023-04-17T18:22:49.635Z,4.60
2023-04-17T18:23:49.684Z,4.90
2023-04-17T18:24:49.631Z,4.60
2023-04-17T18:25:49.611Z,4.70
2023-04-17T18:26:49.585Z,5.30
2023-04-17T18:27:49.587Z,5.10
2023-04-17T18:28:49.560Z,5.00
2023-04-17T18:29:49.561Z,5.20
2023-04-17T18:30:49.607Z,4.80
2023-04-17T18:31:49.567Z,4.70
2023-04-17T18:32:49.551Z,4.80
2023-04-17T18:33:49.504Z,5.10
2023-04-17T18:34:49.512Z,4.90
2023-04-17T18:35:49.505Z,4.80
2023-04-17T18:36:49.466Z,4.40
2023-04-17T18:37:49.461Z,4.80
2023-04-17T18:38:49.444Z,5.00
2023-04-17T18:39:49.462Z,5.30
2023-04-17T18:40:49.430Z,4.80
2023-04-17T18:41:49.412Z,5.20
2023-04-17T18:42:49.403Z,5.20
2023-04-17T18:43:49.421Z,5.20
2023-04-17T18:44:49.472Z,5.10
2023-04-17T18:45:49.367Z,5.40
2023-04-17T18:46:49.391Z,5.30
2023-04-17T18:47:49.367Z,5.40
2023-04-17T18:48:49.337Z,5.90
2023-04-17T18:49:49.345Z,5.00
2023-04-17T18:50:49.318Z,5.60
2023-04-17T18:51:49.312Z,5.30
2023-04-17T18:52:51.210Z,5.40
2023-04-17T18:53:49.275Z,5.50
2023-04-17T18:54:49.546Z,5.40
2023-04-17T18:55:49.277Z,5.60
2023-04-17T18:56:49.257Z,5.50
2023-04-17T18:57:49.232Z,5.30
2023-04-17T18:58:49.223Z,6.00
2023-04-17T18:59:49.249Z,5.10
2023-04-17T19:00:49.242Z,5.90
2023-04-17T19:01:49.200Z,5.30
2023-04-17T19:02:49.322Z,5.50
2023-04-17T19:03:49.177Z,5.60
2023-04-17T19:04:49.241Z,5.70
2023-04-17T19:05:49.301Z,5.00
2023-04-17T19:06:49.137Z,5.10
2023-04-17T19:07:49.121Z,5.40
2023-04-17T19:08:49.118Z,4.80
2023-04-17T19:09:49.122Z,5.70
2023-04-17T19:10:49.088Z,5.40
2023-04-17T19:11:49.108Z,5.10
2023-04-17T19:12:49.061Z,5.60
2023-04-17T19:13:49.069Z,5.20
2023-04-17T19:14:49.055Z,5.30
2023-04-17T19:15:49.028Z,5.20
2023-04-17T19:16:49.185Z,5.20
2023-04-17T19:17:49.034Z,5.80
2023-04-17T19:18:48.999Z,5.60
2023-04-17T19:19:49.007Z,5.80
2023-04-17T19:20:48.984Z,5.60
2023-04-17T19:21:48.968Z,5.70
2023-04-17T19:22:48.963Z,5.50
2023-04-17T19:23:48.967Z,5.90
2023-04-17T19:24:48.951Z,6.00
2023-04-17T19:25:48.927Z,6.00
2023-04-17T19:26:48.910Z,5.50
2023-04-17T19:27:48.918Z,5.70
2023-04-17T19:28:48.882Z,5.80
2023-04-17T19:29:48.912Z,5.70
2023-04-17T19:30:48.862Z,6.50
2023-04-17T19:31:48.894Z,5.90
2023-04-17T19:32:48.858Z,5.70
2023-04-17T19:33:48.860Z,6.00
2023-04-17T19:34:48.850Z,6.00
2023-04-17T19:35:48.808Z,6.30
2023-04-17T19:36:48.798Z,6.20
2023-04-17T19:37:48.785Z,5.90
2023-04-17T19:38:48.774Z,5.50
2023-04-17T19:39:48.793Z,6.00
2023-04-17T19:40:48.747Z,6.40
2023-04-17T19:41:48.738Z,6.00
2023-04-17T19:42:48.726Z,6.10
2023-04-17T19:43:48.736Z,5.70
2023-04-17T19:44:48.730Z,6.20
2023-04-17T19:45:48.736Z,6.10
2023-04-17T19:46:48.699Z,6.00
2023-04-17T19:47:48.725Z,6.20
2023-04-17T19:48:48.659Z,6.70
2023-04-17T19:49:48.695Z,6.40
2023-04-17T19:50:48.653Z,6.40
2023-04-17T19:51:48.643Z,6.20
2023-04-17T19:52:48.615Z,5.80
2023-04-17T19:53:48.604Z,6.10
2023-04-17T19:54:48.614Z,6.10
2023-04-17T19:55:48.593Z,6.30
2023-04-17T19:56:48.576Z,5.60
2023-04-17T19:57:48.562Z,6.30
2023-04-17T19:58:48.546Z,6.20
2023-04-17T19:59:48.568Z,5.90
2023-04-17T20:00:48.584Z,6.10
2023-04-17T20:01:48.735Z,6.30
2023-04-17T20:02:48.613Z,6.50
2023-04-17T20:03:48.726Z,6.70
2023-04-17T20:04:48.499Z,6.70
2023-04-17T20:05:48.474Z,6.20
2023-04-17T20:06:48.462Z,6.90
2023-04-17T20:07:48.455Z,7.00
2023-04-17T20:08:48.441Z,6.70
2023-04-17T20:09:48.442Z,6.60
2023-04-17T20:10:48.428Z,7.20
2023-04-17T20:11:48.410Z,6.70
2023-04-17T20:12:48.394Z,7.90
2023-04-17T20:13:48.392Z,7.50
2023-04-17T20:14:49.549Z,7.20
2023-04-17T20:15:48.385Z,7.00
2023-04-17T20:16:48.397Z,7.60
2023-04-17T20:17:48.404Z,7.40
2023-04-17T20:18:48.325Z,7.70
2023-04-17T20:19:48.348Z,7.10
2023-04-17T20:20:48.324Z,7.90
2023-04-17T20:21:48.295Z,7.20
2023-04-17T20:22:48.283Z,7.60
2023-04-17T20:23:48.277Z,7.90
2023-04-17T20:24:48.290Z,7.10
2023-04-17T20:25:48.255Z,7.30
2023-04-17T20:26:48.250Z,7.20
2023-04-17T20:27:48.238Z,7.90
2023-04-17T20:28:48.227Z,7.80
2023-04-17T20:29:48.233Z,7.90
2023-04-17T20:30:48.201Z,8.10
2023-04-17T20:31:48.225Z,7.70
2023-04-17T20:32:48.286Z,7.90
2023-04-17T20:33:48.207Z,8.60
2023-04-17T20:34:48.199Z,8.00
2023-04-17T20:35:48.151Z,8.30
2023-04-17T20:36:48.127Z,8.40
2023-04-17T20:37:48.122Z,8.20
2023-04-17T20:38:48.133Z,8.50
2023-04-17T20:39:48.135Z,8.10
2023-04-17T20:40:48.093Z,8.70
2023-04-17T20:41:48.083Z,8.20
2023-04-17T20:42:48.072Z,7.80
2023-04-17T20:43:48.054Z,7.60
2023-04-17T20:44:48.056Z,8.40
2023-04-17T20:45:48.028Z,8.60
2023-04-17T20:46:48.125Z,7.70
2023-04-17T20:48:47.998Z,8.10
2023-04-17T20:49:48.017Z,7.70
2023-04-17T20:50:47.974Z,7.90
2023-04-17T20:51:47.974Z,8.40
2023-04-17T20:52:47.958Z,6.90
2023-04-17T20:53:47.940Z,8.00
2023-04-17T20:54:47.952Z,8.20
2023-04-17T20:55:47.923Z,8.00
2023-04-17T20:56:47.915Z,8.00
2023-04-17T20:57:47.911Z,7.90
2023-04-17T20:58:47.886Z,7.70
2023-04-17T20:59:47.887Z,8.30
2023-04-17T21:01:00.814Z,8.80
2023-04-17T21:01:48.882Z,8.60
2023-04-17T21:02:47.960Z,8.60
2023-04-17T21:03:48.009Z,8.40
2023-04-17T21:04:48.016Z,8.20
2023-04-17T21:05:47.799Z,8.10
2023-04-17T21:06:47.792Z,8.30
2023-04-17T21:07:49.484Z,8.60
2023-04-17T21:08:47.772Z,8.40
2023-04-17T21:09:47.776Z,8.40
2023-04-17T21:10:47.754Z,8.80
2023-04-17T21:11:47.751Z,9.30
2023-04-17T21:12:47.723Z,8.70
2023-04-17T21:13:47.712Z,8.80
2023-04-17T21:14:47.724Z,8.70
2023-04-17T21:15:47.718Z,8.30
2023-04-17T21:16:47.681Z,8.70
2023-04-17T21:17:47.966Z,8.90
2023-04-17T21:18:47.669Z,8.80
2023-04-17T21:19:47.697Z,8.10
2023-04-17T21:20:47.644Z,8.80
2023-04-17T21:21:47.621Z,8.30
2023-04-17T21:22:47.629Z,8.50
2023-04-17T21:23:47.604Z,8.30
2023-04-17T21:24:47.612Z,8.30
2023-04-17T21:25:47.583Z,8.90
2023-04-17T21:26:47.574Z,8.80
2023-04-17T21:27:47.572Z,8.80
2023-04-17T21:28:47.545Z,8.00
2023-04-17T21:29:47.560Z,8.70
2023-04-17T21:30:47.526Z,8.60
2023-04-17T21:31:47.542Z,9.00
2023-04-17T21:32:47.533Z,8.60
2023-04-17T21:33:47.489Z,8.70
2023-04-17T21:34:47.502Z,8.70
2023-04-17T21:35:47.491Z,8.90
2023-04-17T21:36:47.456Z,8.70
2023-04-17T21:37:47.446Z,8.80
2023-04-17T21:38:47.449Z,8.90
2023-04-17T21:39:47.450Z,8.80
2023-04-17T21:40:51.412Z,9.80
2023-04-17T21:41:47.407Z,8.70
2023-04-17T21:42:47.393Z,8.40
2023-04-17T21:43:47.387Z,8.70
2023-04-17T21:44:47.397Z,8.60
2023-04-17T21:45:47.445Z,8.40
2023-04-17T21:46:47.355Z,9.00
2023-04-17T21:47:47.383Z,8.70
2023-04-17T21:48:47.329Z,8.80
2023-04-17T21:49:47.335Z,8.00
2023-04-17T21:50:47.337Z,8.40
2023-04-17T21:51:47.332Z,8.50
2023-04-17T21:52:47.286Z,8.10
2023-04-17T21:53:47.272Z,7.80
2023-04-17T21:54:47.292Z,8.10
2023-04-17T21:55:47.259Z,8.00
2023-04-17T21:56:47.248Z,8.10
2023-04-17T21:57:47.244Z,8.60
2023-04-17T21:58:47.224Z,8.70
2023-04-17T21:59:47.241Z,8.10
2023-04-17T22:00:47.234Z,8.00
2023-04-17T22:01:47.189Z,8.40
2023-04-17T22:02:47.366Z,8.30
2023-04-17T22:03:47.178Z,8.00
2023-04-17T22:04:47.344Z,8.10
2023-04-17T22:05:47.151Z,8.10
2023-04-17T22:06:47.145Z,7.60
2023-04-17T22:07:54.438Z,8.10
2023-04-17T22:08:48.108Z,8.10
2023-04-17T22:09:47.122Z,8.00
2023-04-17T22:10:47.108Z,8.30
2023-04-17T22:11:47.078Z,8.30
2023-04-17T22:12:47.068Z,8.30
2023-04-17T22:13:47.128Z,8.30
2023-04-17T22:14:47.075Z,8.20
2023-04-17T22:15:47.034Z,8.10
2023-04-17T22:16:47.088Z,8.50
2023-04-17T22:17:47.113Z,8.50
2023-04-17T22:18:47.012Z,8.50
2023-04-17T22:19:47.017Z,8.50
2023-04-17T22:20:46.988Z,8.60
2023-04-17T22:21:46.972Z,8.30
2023-04-17T22:22:46.970Z,8.30
2023-04-17T22:23:46.982Z,8.50
2023-04-17T22:24:46.956Z,8.60
2023-04-17T22:25:46.941Z,8.50
2023-04-17T22:26:46.921Z,8.10
2023-04-17T22:27:46.911Z,8.60
2023-04-17T22:29:57.620Z,6.90
2023-04-17T22:30:57.640Z,8.50
2023-04-17T22:31:57.581Z,8.80
2023-04-17T22:32:57.589Z,8.80
2023-04-17T22:33:57.560Z,9.30
2023-04-17T22:34:57.566Z,9.20
2023-04-17T22:35:57.532Z,9.40
2023-04-17T22:36:57.537Z,9.20
2023-04-17T22:37:57.512Z,8.00
2023-04-17T22:38:57.531Z,9.00
2023-04-17T22:39:57.517Z,9.00
2023-04-17T22:40:57.504Z,8.80
2023-04-17T22:41:57.483Z,8.90
2023-04-17T22:42:57.461Z,9.20
2023-04-17T22:43:57.457Z,9.60
2023-04-17T22:44:57.459Z,9.30
2023-04-17T22:45:57.460Z,8.50
2023-04-17T22:46:57.414Z,8.70
2023-04-17T22:47:57.529Z,9.40
2023-04-17T22:48:57.390Z,8.70
2023-04-17T22:49:57.403Z,9.10
2023-04-17T22:50:57.367Z,9.30
2023-04-17T22:51:57.369Z,9.10
2023-04-17T22:52:57.359Z,8.70
2023-04-17T22:53:57.877Z,8.50
2023-04-17T22:54:57.385Z,8.80
2023-04-17T22:55:57.319Z,9.00
2023-04-17T22:56:57.313Z,8.30
2023-04-17T22:57:57.300Z,8.90
2023-04-17T22:58:57.277Z,9.20
2023-04-17T22:59:57.289Z,8.70
2023-04-17T23:00:57.272Z,8.80
2023-04-17T23:01:57.553Z,8.90
2023-04-17T23:02:57.337Z,8.30
2023-04-17T23:03:57.261Z,9.00
2023-04-17T23:04:57.325Z,9.10
2023-04-17T23:05:57.236Z,8.60
2023-04-17T23:08:09.429Z,7.70
2023-04-17T23:09:09.412Z,8.90
2023-04-17T23:10:09.438Z,8.80
2023-04-17T23:11:09.381Z,9.20
2023-04-17T23:12:09.385Z,8.70
2023-04-17T23:13:09.364Z,8.60
2023-04-17T23:14:09.351Z,9.00
2023-04-17T23:15:09.361Z,9.00
2023-04-17T23:16:09.400Z,8.90
2023-04-17T23:17:09.322Z,8.70
2023-04-17T23:18:09.319Z,8.60
2023-04-17T23:19:09.316Z,9.10
2023-04-17T23:20:09.300Z,8.60
2023-04-17T23:21:09.271Z,8.70
2023-04-17T23:22:09.404Z,8.60
2023-04-17T23:23:09.247Z,8.90
2023-04-17T23:24:09.232Z,9.00
2023-04-17T23:25:09.253Z,9.70
2023-04-17T23:26:09.229Z,9.10
2023-04-17T23:27:09.198Z,8.70
2023-04-17T23:28:09.195Z,9.10
2023-04-17T23:29:09.184Z,8.60
2023-04-17T23:30:09.186Z,8.80
2023-04-17T23:31:09.189Z,8.50
2023-04-17T23:32:09.159Z,9.50
2023-04-17T23:33:09.146Z,8.90
2023-04-17T23:34:09.130Z,9.30
2023-04-17T23:35:09.124Z,8.70
2023-04-17T23:36:09.117Z,8.50
2023-04-17T23:37:09.097Z,9.50
2023-04-17T23:38:09.092Z,8.60
2023-04-17T23:39:09.081Z,9.10
2023-04-17T23:40:09.089Z,8.40
2023-04-17T23:41:09.053Z,8.40
2023-04-17T23:42:09.059Z,8.30
2023-04-17T23:43:09.035Z,8.50
2023-04-17T23:44:09.024Z,8.50
2023-04-17T23:45:09.026Z,8.50
2023-04-17T23:46:09.031Z,8.90
2023-04-17T23:47:09.005Z,9.10
2023-04-17T23:48:08.986Z,8.90
2023-04-17T23:49:09.020Z,8.30
2023-04-17T23:50:08.974Z,8.50
2023-04-17T23:51:08.961Z,8.50
2023-04-17T23:52:08.934Z,8.10
2023-04-17T23:53:08.927Z,8.40
2023-04-17T23:54:08.925Z,8.40
2023-04-17T23:55:08.910Z,8.40
2023-04-17T23:56:08.888Z,8.70
2023-04-17T23:57:08.881Z,8.30
2023-04-17T23:58:08.880Z,8.90
2023-04-17T23:59:08.848Z,8.20
